createdAt,value
2023-01-23T00:06:15.029Z,21.20
2023-01-23T00:09:42.104Z,20.70
2023-01-23T00:20:22.939Z,16.95
2023-01-23T00:26:18.100Z,15.98
2023-01-23T00:29:06.751Z,17.85
2023-01-23T00:31:47.098Z,20.40
2023-01-23T00:34:29.137Z,15.60
2023-01-23T00:36:59.605Z,17.85
2023-01-23T00:39:40.053Z,19.42
2023-01-23T00:42:20.235Z,20.08
2023-01-23T00:47:49.688Z,24.85
2023-01-23T00:53:35.171Z,19.05
2023-01-23T00:56:26.588Z,23.15
2023-01-23T00:58:59.968Z,22.40
2023-01-23T01:02:06.694Z,19.83
2023-01-23T01:05:23.299Z,38.05
2023-01-23T01:08:18.024Z,21.05
2023-01-23T01:20:47.065Z,24.83
2023-01-23T01:23:34.906Z,22.02
2023-01-23T01:26:51.417Z,24.63
2023-01-23T01:29:29.567Z,18.48
2023-01-23T01:42:59.217Z,25.23
2023-01-23T01:51:10.022Z,21.95
2023-01-23T02:00:23.185Z,27.17
2023-01-23T02:06:23.782Z,29.17
2023-01-23T02:15:54.604Z,20.33
2023-01-23T02:18:27.070Z,23.58
2023-01-23T02:27:25.222Z,28.42
2023-01-23T02:33:22.236Z,31.88
2023-01-23T02:36:13.598Z,25.83
2023-01-23T02:39:08.146Z,21.10
2023-01-23T02:44:51.498Z,22.63
2023-01-23T02:47:34.441Z,21.38
2023-01-23T02:50:22.562Z,20.88
2023-01-23T02:53:26.409Z,23.38
2023-01-23T02:56:35.032Z,23.83
2023-01-23T02:59:43.979Z,26.10
2023-01-23T03:07:22.921Z,29.98
2023-01-23T03:19:59.163Z,24.52
2023-01-23T03:22:43.491Z,27.90
2023-01-23T03:25:25.527Z,20.95
2023-01-23T03:31:54.320Z,29.25
2023-01-23T03:35:18.280Z,27.30
2023-01-23T03:49:47.185Z,24.58
2023-01-23T03:55:32.768Z,21.70
2023-01-23T04:18:05.242Z,27.42
2023-01-23T04:20:51.889Z,24.77
2023-01-23T04:31:49.775Z,22.63
2023-01-23T04:38:29.581Z,22.42
2023-01-23T04:41:33.945Z,23.23
2023-01-23T04:54:33.530Z,22.25
2023-01-23T05:00:00.841Z,23.00
2023-01-23T05:02:58.041Z,29.20
2023-01-23T05:05:28.438Z,24.13
2023-01-23T05:08:00.905Z,23.98
2023-01-23T05:10:34.439Z,23.90
2023-01-23T05:13:06.802Z,23.98
2023-01-23T05:15:37.207Z,20.67
2023-01-23T05:18:38.216Z,25.73
2023-01-23T05:21:08.156Z,27.10
2023-01-23T05:23:40.811Z,26.90
2023-01-23T05:26:11.335Z,24.65
2023-01-23T05:29:11.392Z,26.02
2023-01-23T05:31:52.739Z,17.05
2023-01-23T05:34:46.509Z,19.42
2023-01-23T05:46:45.374Z,30.45
2023-01-23T05:49:21.622Z,20.38
2023-01-23T05:52:03.265Z,21.45
2023-01-23T05:54:33.450Z,23.85
2023-01-23T05:57:09.722Z,20.23
2023-01-23T06:00:21.814Z,20.70
2023-01-23T06:03:12.654Z,32.30
2023-01-23T06:06:08.194Z,31.00
2023-01-23T06:08:48.536Z,32.42
2023-01-23T06:11:38.433Z,26.58
2023-01-23T06:14:08.317Z,25.90
2023-01-23T06:16:36.805Z,23.85
2023-01-23T06:19:06.221Z,28.08
2023-01-23T06:21:36.921Z,21.60
2023-01-23T06:24:04.752Z,24.77
2023-01-23T06:26:31.738Z,27.85
2023-01-23T06:28:58.839Z,26.27
2023-01-23T06:31:25.949Z,22.88
2023-01-23T06:33:55.340Z,22.17
2023-01-23T06:36:29.062Z,24.45
2023-01-23T06:38:56.078Z,23.70
2023-01-23T06:41:28.368Z,26.20
2023-01-23T06:44:01.659Z,27.10
2023-01-23T06:46:29.455Z,33.72
2023-01-23T06:49:00.925Z,32.15
2023-01-23T06:51:33.284Z,35.92
2023-01-23T06:54:03.011Z,38.75
2023-01-23T06:56:32.147Z,38.08
2023-01-23T06:59:24.066Z,30.67
2023-01-23T07:05:21.987Z,26.52
2023-01-23T07:07:59.114Z,29.35
2023-01-23T07:10:30.363Z,27.33
2023-01-23T07:12:57.525Z,27.05
2023-01-23T07:15:26.238Z,26.75
2023-01-23T07:17:53.583Z,24.17
2023-01-23T07:20:20.882Z,25.63
2023-01-23T07:22:58.383Z,24.83
2023-01-23T07:25:26.157Z,29.52
2023-01-23T07:27:53.169Z,27.88
2023-01-23T07:30:21.301Z,26.58
2023-01-23T07:32:52.812Z,31.80
2023-01-23T07:35:33.078Z,23.80
2023-01-23T07:38:23.422Z,24.48
2023-01-23T07:41:30.332Z,27.50
2023-01-23T07:48:40.674Z,27.63
2023-01-23T07:59:25.553Z,23.08
2023-01-23T08:02:03.517Z,27.48
2023-01-23T08:04:36.674Z,27.67
2023-01-23T08:07:11.107Z,29.13
2023-01-23T08:09:39.554Z,32.65
2023-01-23T08:12:11.826Z,28.15
2023-01-23T08:14:41.540Z,30.08
2023-01-23T08:17:13.644Z,27.38
2023-01-23T08:25:24.419Z,24.75
2023-01-23T08:27:56.789Z,28.77
2023-01-23T08:30:27.545Z,31.00
2023-01-23T08:33:07.594Z,28.23
2023-01-23T08:35:53.775Z,27.95
2023-01-23T08:38:37.139Z,28.50
2023-01-23T08:41:14.341Z,29.17
2023-01-23T08:44:12.364Z,29.25
2023-01-23T08:46:46.761Z,31.00
2023-01-23T08:49:25.570Z,31.75
2023-01-23T08:51:57.235Z,28.27
2023-01-23T08:54:27.982Z,28.52
2023-01-23T08:59:47.942Z,32.45
2023-01-23T09:02:20.365Z,32.78
2023-01-23T09:04:58.724Z,30.15
2023-01-23T09:07:27.231Z,29.42
2023-01-23T09:09:56.274Z,30.13
2023-01-23T09:12:25.939Z,31.23
2023-01-23T09:15:01.717Z,25.70
2023-01-23T09:17:32.171Z,26.52
2023-01-23T09:20:00.979Z,28.95
2023-01-23T09:22:28.709Z,28.92
2023-01-23T09:25:06.092Z,30.25
2023-01-23T09:27:36.806Z,27.83
2023-01-23T09:30:18.955Z,24.95
2023-01-23T09:33:02.085Z,25.90
2023-01-23T09:35:43.911Z,27.52
2023-01-23T09:38:18.745Z,23.80
2023-01-23T09:47:53.379Z,23.75
2023-01-23T09:50:48.120Z,24.27
2023-01-23T09:53:28.359Z,30.67
2023-01-23T09:56:36.571Z,31.35
2023-01-23T10:00:15.109Z,20.50
2023-01-23T10:06:08.838Z,28.02
2023-01-23T10:09:10.518Z,26.25
2023-01-23T10:12:33.695Z,23.15
2023-01-23T10:15:26.235Z,31.15
2023-01-23T10:18:12.466Z,26.13
2023-01-23T10:20:54.570Z,27.92
2023-01-23T10:23:46.783Z,25.35
2023-01-23T10:26:41.731Z,29.95
2023-01-23T10:29:45.912Z,33.92
2023-01-23T10:32:57.704Z,26.60
2023-01-23T10:35:41.661Z,22.88
2023-01-23T10:38:50.187Z,26.40
2023-01-23T10:44:01.831Z,28.05
2023-01-23T10:46:38.392Z,22.58
2023-01-23T10:49:11.541Z,27.20
2023-01-23T10:52:04.853Z,24.52
2023-01-23T10:54:56.690Z,25.13
2023-01-23T10:57:45.341Z,27.25
2023-01-23T11:00:42.633Z,23.35
2023-01-23T11:03:56.642Z,22.30
2023-01-23T11:06:32.625Z,27.13
2023-01-23T11:12:15.059Z,28.88
2023-01-23T11:15:22.030Z,26.80
2023-01-23T11:24:46.527Z,22.63
2023-01-23T11:27:52.101Z,24.35
2023-01-23T11:30:40.876Z,22.45
2023-01-23T11:37:28.472Z,26.30
2023-01-23T11:40:27.321Z,23.77
2023-01-23T11:43:05.611Z,22.52
2023-01-23T11:46:43.260Z,23.60
2023-01-23T11:50:25.397Z,23.80
2023-01-23T11:53:41.546Z,28.30
2023-01-23T11:56:45.065Z,21.45
2023-01-23T11:59:59.919Z,20.40
2023-01-23T12:02:58.877Z,23.73
2023-01-23T12:06:19.231Z,27.27
2023-01-23T12:09:52.801Z,19.85
2023-01-23T12:13:15.740Z,22.05
2023-01-23T12:16:25.529Z,21.00
2023-01-23T12:23:07.613Z,22.10
2023-01-23T12:26:01.132Z,24.73
2023-01-23T12:29:13.659Z,27.80
2023-01-23T12:32:10.366Z,23.25
2023-01-23T12:34:53.138Z,20.50
2023-01-23T12:37:57.710Z,29.88
2023-01-23T12:40:56.262Z,20.08
2023-01-23T12:44:23.682Z,19.48
2023-01-23T12:51:00.769Z,24.83
2023-01-23T12:53:40.155Z,20.58
2023-01-23T12:56:43.205Z,26.23
2023-01-23T12:59:51.537Z,25.33
2023-01-23T13:02:40.927Z,23.48
2023-01-23T13:06:09.350Z,26.55
2023-01-23T13:10:02.653Z,26.80
2023-01-23T13:12:41.443Z,18.67
2023-01-23T13:15:40.446Z,18.80
2023-01-23T13:18:31.500Z,19.50
2023-01-23T13:21:19.411Z,19.33
2023-01-23T13:23:50.090Z,17.45
2023-01-23T13:26:35.921Z,26.38
2023-01-23T13:29:09.103Z,22.65
2023-01-23T13:31:50.751Z,15.88
2023-01-23T13:34:44.641Z,16.80
2023-01-23T13:37:41.123Z,16.02
2023-01-23T13:40:28.410Z,17.77
2023-01-23T13:42:56.337Z,20.35
2023-01-23T13:45:41.146Z,19.83
2023-01-23T14:28:34.392Z,17.98
2023-01-23T14:37:24.857Z,22.65
2023-01-23T14:40:11.702Z,19.00
2023-01-23T14:42:47.314Z,15.07
2023-01-23T14:45:25.126Z,20.83
2023-01-23T14:48:05.634Z,19.08
2023-01-23T14:50:37.215Z,17.83
2023-01-23T14:53:25.053Z,23.83
2023-01-23T14:56:00.208Z,18.48
2023-01-23T14:58:38.626Z,16.52
2023-01-23T15:01:08.727Z,15.95
2023-01-23T15:07:25.270Z,18.58
2023-01-23T15:13:00.593Z,18.02
2023-01-23T15:15:41.052Z,18.65
2023-01-23T15:18:27.574Z,19.33
2023-01-23T15:21:10.562Z,21.02
2023-01-23T15:26:44.260Z,20.60
2023-01-23T15:29:27.382Z,17.85
2023-01-23T15:31:56.690Z,19.90
2023-01-23T15:34:34.663Z,18.27
2023-01-23T15:37:40.691Z,20.05
2023-01-23T15:40:30.293Z,17.85
2023-01-23T15:43:15.028Z,14.73
2023-01-23T15:45:42.285Z,20.50
2023-01-23T15:51:03.644Z,16.70
2023-01-23T15:53:43.350Z,17.77
2023-01-23T15:56:29.376Z,21.00
2023-01-23T15:59:04.954Z,18.25
2023-01-23T16:01:35.576Z,17.17
2023-01-23T16:04:08.409Z,19.55
2023-01-23T16:06:38.191Z,25.63
2023-01-23T16:09:10.259Z,19.15
2023-01-23T16:11:44.910Z,15.30
2023-01-23T16:14:18.139Z,15.38
2023-01-23T16:17:15.811Z,18.63
2023-01-23T16:20:26.428Z,16.77
2023-01-23T16:23:47.248Z,16.42
2023-01-23T16:26:40.713Z,18.35
2023-01-23T16:29:45.219Z,17.58
2023-01-23T16:32:56.244Z,18.63
2023-01-23T16:36:15.231Z,17.42
2023-01-23T16:39:00.408Z,17.10
2023-01-23T16:41:47.665Z,17.33
2023-01-23T16:49:56.044Z,18.17
2023-01-23T16:52:47.799Z,16.40
2023-01-23T16:58:39.763Z,18.85
2023-01-23T17:01:26.599Z,20.02
2023-01-23T17:04:07.459Z,15.90
2023-01-23T17:06:41.146Z,20.75
2023-01-23T17:16:06.052Z,21.63
2023-01-23T17:21:42.678Z,16.33
2023-01-23T17:24:22.873Z,18.73
2023-01-23T17:27:34.346Z,15.75
2023-01-23T17:32:53.442Z,16.83
2023-01-23T17:35:32.149Z,16.02
2023-01-23T19:39:07.357Z,20.45
2023-01-23T19:42:05.044Z,20.33
2023-01-23T19:47:22.605Z,16.98
2023-01-23T19:50:04.840Z,16.25
2023-01-23T19:52:52.783Z,18.52
2023-01-23T19:55:45.872Z,21.23
2023-01-23T19:58:15.380Z,17.08
2023-01-23T20:00:43.825Z,19.73
2023-01-23T20:03:14.980Z,24.88
2023-01-23T20:06:01.400Z,19.83
2023-01-23T20:08:41.012Z,19.52
2023-01-23T20:11:15.652Z,23.23
2023-01-23T20:13:46.430Z,18.73
2023-01-23T20:16:25.045Z,22.70
2023-01-23T20:18:56.694Z,20.23
2023-01-23T20:21:27.584Z,24.98
2023-01-23T20:24:17.107Z,18.63
2023-01-23T20:26:48.141Z,22.90
2023-01-23T20:29:29.009Z,19.58
2023-01-23T20:32:05.976Z,19.60
2023-01-23T20:34:38.402Z,18.33
2023-01-23T20:37:12.330Z,18.67
2023-01-23T20:39:42.067Z,17.45
2023-01-23T20:42:11.282Z,20.20
2023-01-23T20:44:43.492Z,14.30
2023-01-23T20:47:12.546Z,17.73
2023-01-23T20:49:40.002Z,16.17
2023-01-23T20:52:26.642Z,14.80
2023-01-23T20:54:56.950Z,15.07
2023-01-23T20:57:52.928Z,15.75
2023-01-23T21:00:20.940Z,13.75
2023-01-23T21:02:50.769Z,15.85
2023-01-23T21:05:19.556Z,16.73
2023-01-23T21:07:48.164Z,15.13
2023-01-23T21:10:16.862Z,18.20
2023-01-23T21:12:44.890Z,13.93
2023-01-23T21:15:13.438Z,18.75
2023-01-23T21:17:54.655Z,17.70
2023-01-23T21:20:26.383Z,19.08
2023-01-23T21:22:59.737Z,16.63
2023-01-23T21:25:27.371Z,17.25
2023-01-23T21:28:02.408Z,13.80
2023-01-23T21:30:35.188Z,14.13
2023-01-23T21:33:11.481Z,13.70
2023-01-23T21:35:41.628Z,16.15
2023-01-23T21:38:08.909Z,15.93
2023-01-23T21:40:39.741Z,17.05
2023-01-23T21:43:06.847Z,17.42
2023-01-23T21:45:44.089Z,15.05
2023-01-23T21:51:16.377Z,14.07
2023-01-23T21:53:53.113Z,16.70
2023-01-23T21:56:22.843Z,20.90
2023-01-23T21:58:53.794Z,15.95
2023-01-23T22:01:36.198Z,18.10
2023-01-23T22:04:13.012Z,15.57
2023-01-23T22:06:44.467Z,19.33
2023-01-23T22:09:19.601Z,14.00
2023-01-23T22:11:53.105Z,18.27
2023-01-23T22:14:22.288Z,13.50
2023-01-23T22:17:00.524Z,17.73
2023-01-23T22:19:34.534Z,15.55
2023-01-23T22:24:47.238Z,16.60
2023-01-23T22:27:19.844Z,18.88
2023-01-23T22:29:48.142Z,18.30
2023-01-23T22:32:23.694Z,18.35
2023-01-23T22:34:51.197Z,15.68
2023-01-23T22:37:19.994Z,16.73
2023-01-23T22:39:58.616Z,15.95
2023-01-23T22:42:27.036Z,15.05
2023-01-23T22:45:11.192Z,14.45
2023-01-23T22:48:01.074Z,16.65
2023-01-23T22:50:38.000Z,15.98
2023-01-23T22:53:13.860Z,19.45
2023-01-23T22:55:44.077Z,16.58
2023-01-23T23:59:43.463Z,16.10
